Time;durP1;ratioP1;P1;durP2;ratioP2;P2;SDS_P1;SDS_P2;PMS_P1;PMS_P2;Temp;Humidity;BMP_temperature;BMP_pressure;BME280_temperature;BME280_humidity;BME280_pressure;Samples;Min_cycle;Max_cycle;Signal;HPM_P1;HPM_P2
2022/02/16 00:01:45;;;;;;;;;;;;;;;1.15;92.85;100335.69;5111621;28;830;-59
2022/02/16 00:04:11;;;;;;;;;;;;;;;1.29;92.50;100339.00;5111519;28;896;-57
2022/02/16 00:06:38;;;;;;;;;;;;;;;1.30;92.46;100334.34;5111631;28;959;-57
2022/02/16 00:09:05;;;;;;;;;;;;;;;1.36;93.07;100338.50;5111380;28;893;-58
2022/02/16 00:11:31;;;;;;;;;;;;;;;1.38;93.21;100334.31;5111825;28;806;-57
2022/02/16 00:13:57;;;;;;;;;;;;;;;1.38;92.64;100333.53;5111408;28;936;-57
2022/02/16 00:16:24;;;;;;;;;;;;;;;1.30;92.62;100331.63;5111662;28;1889;-57
2022/02/16 00:18:51;;;;;;;;;;;;;;;1.24;93.48;100320.16;5111494;28;869;-57
2022/02/16 00:21:18;;;;;;;;;;;;;;;1.10;92.89;100328.50;5111335;28;823;-57
2022/02/16 00:23:44;;;;;;;;;;;;;;;1.14;93.90;100315.84;5111424;28;842;-57
2022/02/16 00:26:10;;;;;;;;;;;;;;;1.16;93.66;100323.69;5111377;28;842;-59
2022/02/16 00:28:37;;;;;;;;;;;;;;;1.16;93.38;100319.03;5111371;28;815;-57
2022/02/16 00:31:05;;;;;;;;;;;;;;;1.20;93.40;100314.53;5114699;28;872;-57
2022/02/16 00:33:31;;;;;;;;;;;;;;;1.13;93.54;100319.72;5115033;28;826;-59
2022/02/16 00:35:57;;;;;;;;;;;;;;;0.93;92.84;100320.41;5114872;28;959;-59
2022/02/16 00:38:23;;;;;;;;;;;;;;;0.83;93.68;100313.38;5114906;28;1958;-59
2022/02/16 00:40:49;;;;;;;;;;;;;;;0.75;93.33;100306.84;5114740;28;1446;-59
2022/02/16 00:43:15;;;;;;;;;;;;;;;0.80;94.53;100303.94;5115286;28;752;-59
2022/02/16 00:45:41;;;;;;;;;;;;;;;0.78;93.96;100305.41;5114654;28;1681;-58
2022/02/16 00:48:08;;;;;;;;;;;;;;;0.69;93.68;100304.63;5114719;28;814;-57
2022/02/16 00:50:35;;;;;;;;;;;;;;;0.56;94.22;100299.03;5114468;28;893;-57
2022/02/16 00:53:01;;;;;;;;;;;;;;;0.48;94.28;100296.34;5114587;28;830;-57
2022/02/16 00:55:28;;;;;;;;;;;;;;;0.38;94.50;100294.75;5114467;28;889;-58
2022/02/16 00:57:54;;;;;;;;;;;;;;;0.28;94.68;100285.00;5114481;28;1926;-57
2022/02/16 01:00:20;;;;;;;;;;;;;;;0.28;95.69;100289.63;5114761;28;1163;-57
2022/02/16 01:02:47;;;;;;;;;;;;;;;0.30;95.73;100287.38;5114684;28;854;-57
2022/02/16 01:05:14;;;;;;;;;;;;;;;0.29;95.88;100283.09;5114439;28;909;-57
2022/02/16 01:07:40;;;;;;;;;;;;;;;0.19;95.34;100273.31;5114369;28;918;-57
2022/02/16 01:10:07;;;;;;;;;;;;;;;0.18;95.79;100274.47;5114296;28;854;-58
2022/02/16 01:12:34;;;;;;;;;;;;;;;0.28;96.60;100278.75;5130211;27;854;-57
2022/02/16 01:15:01;;;;;;;;;;;;;;;0.36;96.55;100273.31;5114346;28;1434;-57
2022/02/16 01:17:27;;;;;;;;;;;;;;;0.28;96.23;100270.59;5114082;28;1890;-57
2022/02/16 01:19:54;;;;;;;;;;;;;;;0.15;95.58;100264.22;5130020;27;819;-57
2022/02/16 01:22:20;;;;;;;;;;;;;;;0.04;95.64;100262.94;5113983;28;850;-57
2022/02/16 01:24:46;;;;;;;;;;;;;;;0.02;95.98;100265.97;5114038;28;806;-57
2022/02/16 01:27:13;;;;;;;;;;;;;;;0.07;96.42;100268.53;5129807;27;810;-57
2022/02/16 01:29:39;;;;;;;;;;;;;;;0.06;96.40;100260.69;5113932;28;842;-57
2022/02/16 01:32:06;;;;;;;;;;;;;;;0.02;96.52;100257.81;5113863;28;818;-57
2022/02/16 01:34:32;;;;;;;;;;;;;;;-0.02;96.41;100265.03;5113840;28;1009;-57
2022/02/16 01:36:59;;;;;;;;;;;;;;;-0.04;96.22;100251.75;5113580;28;1890;-57
2022/02/16 01:39:25;;;;;;;;;;;;;;;-0.17;95.85;100258.16;5113706;28;957;-57
2022/02/16 01:41:53;;;;;;;;;;;;;;;-0.32;95.90;100247.75;5113387;28;1422;-57
2022/02/16 01:44:21;;;;;;;;;;;;;;;-0.45;96.05;100238.63;5113920;28;885;-57
2022/02/16 01:46:55;;;;;;;;;;;;;;;-0.44;96.46;100237.53;5113508;28;859;-57
2022/02/16 01:49:22;;;;;;;;;;;;;;;-0.47;96.57;100238.13;5113465;28;873;-57
2022/02/16 01:51:49;;;;;;;;;;;;;;;-0.36;97.22;100242.16;5129275;27;834;-57
2022/02/16 01:54:16;;;;;;;;;;;;;;;-0.12;97.64;100243.63;5095090;28;1603;-57
2022/02/16 01:56:47;;;;;;;;;;;;;;;-0.02;97.55;100249.53;5113280;28;1913;-57
2022/02/16 01:59:17;;;;;;;;;;;;;;;-0.32;96.93;100205.09;5113951;28;815;-57
2022/02/16 02:01:43;;;;;;;;;;;;;;;-0.02;97.41;100237.84;5113233;28;815;-57
2022/02/16 02:04:10;;;;;;;;;;;;;;;-0.05;96.96;100242.00;5113183;28;877;-57
2022/02/16 02:06:36;;;;;;;;;;;;;;;-0.01;97.18;100236.72;5113397;28;877;-57
2022/02/16 02:09:03;;;;;;;;;;;;;;;-0.07;96.75;100230.66;5113079;28;864;-57
2022/02/16 02:11:29;;;;;;;;;;;;;;;-0.29;96.23;100239.75;5095134;28;819;-57
2022/02/16 02:13:59;;;;;;;;;;;;;;;-0.52;95.62;100241.00;5113098;28;873;-57
2022/02/16 02:16:26;;;;;;;;;;;;;;;-0.72;96.06;100239.72;5113242;28;926;-57
2022/02/16 02:18:52;;;;;;;;;;;;;;;-0.59;96.99;100233.34;5112891;28;807;-57
2022/02/16 02:21:19;;;;;;;;;;;;;;;-0.46;97.50;100234.31;5112929;28;807;-57
2022/02/16 02:23:46;;;;;;;;;;;;;;;-0.32;97.76;100239.59;5094545;28;2652;-57
2022/02/16 02:26:13;;;;;;;;;;;;;;;-0.44;96.76;100237.53;5112883;28;889;-57
2022/02/16 02:28:40;;;;;;;;;;;;;;;-0.57;96.72;100228.41;5112772;28;866;-57
2022/02/16 02:31:07;;;;;;;;;;;;;;;-0.44;97.60;100230.16;5112687;28;882;-57
2022/02/16 02:33:34;;;;;;;;;;;;;;;-0.36;97.48;100225.88;5112904;28;795;-57
2022/02/16 02:36:01;;;;;;;;;;;;;;;-0.25;97.83;100229.84;5094430;28;861;-57
2022/02/16 02:38:29;;;;;;;;;;;;;;;-0.26;97.71;100230.97;5112517;28;1950;-57
2022/02/16 02:41:00;;;;;;;;;;;;;;;-0.11;98.24;100239.75;5112224;28;1314;-57
2022/02/16 02:43:26;;;;;;;;;;;;;;;0.03;97.84;100242.34;5112663;28;854;-57
2022/02/16 02:45:53;;;;;;;;;;;;;;;0.09;97.72;100239.13;5112469;28;814;-57
2022/02/16 02:48:20;;;;;;;;;;;;;;;0.14;97.80;100246.31;5128109;27;2166;-57
2022/02/16 02:50:51;;;;;;;;;;;;;;;0.10;97.30;100239.91;5112268;28;924;-57
2022/02/16 02:53:19;;;;;;;;;;;;;;;0.13;97.29;100250.16;5111855;28;940;-57
2022/02/16 02:55:46;;;;;;;;;;;;;;;0.04;97.15;100246.63;5112217;28;908;-57
2022/02/16 02:58:13;;;;;;;;;;;;;;;-0.10;96.84;100244.88;5112270;28;1970;-57
2022/02/16 03:00:41;;;;;;;;;;;;;;;-0.22;96.97;100245.50;5094201;28;866;-57
2022/02/16 03:06:12;;;;;;;;;;;;;;;-0.60;96.61;100231.72;5093155;28;1255;-57
2022/02/16 03:08:38;;;;;;;;;;;;;;;-0.72;97.20;100237.78;5112199;28;947;-58
2022/02/16 03:11:07;;;;;;;;;;;;;;;-0.82;97.21;100238.06;5112130;28;879;-57
2022/02/16 03:13:33;;;;;;;;;;;;;;;-0.89;97.15;100230.41;5112054;28;913;-58
2022/02/16 03:15:59;;;;;;;;;;;;;;;-0.92;97.52;100239.16;5112263;28;966;-57
2022/02/16 03:18:27;;;;;;;;;;;;;;;-0.90;97.69;100236.91;5093727;28;1890;-57
2022/02/16 03:20:57;;;;;;;;;;;;;;;-0.99;97.46;100235.31;5112089;28;928;-57
2022/02/16 03:23:25;;;;;;;;;;;;;;;-1.09;97.85;100239.91;5112070;28;865;-57
2022/02/16 03:25:52;;;;;;;;;;;;;;;-1.12;97.62;100235.09;5111835;28;913;-57
2022/02/16 03:28:19;;;;;;;;;;;;;;;-1.12;97.83;100226.16;5111982;28;889;-57
2022/02/16 03:30:45;;;;;;;;;;;;;;;-1.01;98.51;100222.06;5111798;28;930;-57
2022/02/16 03:33:12;;;;;;;;;;;;;;;-0.94;98.40;100227.84;5111861;28;1094;-57
2022/02/16 03:35:38;;;;;;;;;;;;;;;-0.88;98.59;100231.19;5111855;28;810;-57
2022/02/16 03:38:07;;;;;;;;;;;;;;;-0.77;98.98;100234.41;5111731;28;1906;-57
2022/02/16 03:40:33;;;;;;;;;;;;;;;-0.62;99.03;100232.06;5111535;28;1267;-57
2022/02/16 03:43:00;;;;;;;;;;;;;;;-0.47;99.32;100238.97;5111795;28;901;-57
2022/02/16 03:45:27;;;;;;;;;;;;;;;-0.32;99.49;100237.69;5111727;28;854;-57
2022/02/16 03:47:53;;;;;;;;;;;;;;;-0.18;99.65;100242.16;5111678;28;806;-57
2022/02/16 03:50:22;;;;;;;;;;;;;;;-0.08;99.63;100239.94;5111812;28;878;-59
2022/02/16 03:52:51;;;;;;;;;;;;;;;0.03;99.47;100248.56;5111635;28;949;-59
2022/02/16 03:55:17;;;;;;;;;;;;;;;0.12;99.45;100240.41;5111580;28;969;-59
2022/02/16 03:57:43;;;;;;;;;;;;;;;0.24;99.55;100237.03;5111540;28;1946;-59
2022/02/16 04:00:10;;;;;;;;;;;;;;;0.32;99.07;100247.91;5111704;28;881;-59
2022/02/16 04:02:37;;;;;;;;;;;;;;;0.33;99.41;100240.53;5111512;28;945;-59
2022/02/16 04:05:06;;;;;;;;;;;;;;;0.30;99.33;100243.88;5113623;28;818;-59
2022/02/16 04:07:32;;;;;;;;;;;;;;;0.20;98.72;100250.47;5115403;28;967;-59
2022/02/16 04:09:59;;;;;;;;;;;;;;;0.09;99.18;100241.84;5115460;28;866;-59
2022/02/16 04:12:28;;;;;;;;;;;;;;;0.00;98.60;100243.78;5097243;28;826;-59
2022/02/16 04:14:54;;;;;;;;;;;;;;;-0.06;99.14;100242.34;5115298;28;939;-59
2022/02/16 04:17:21;;;;;;;;;;;;;;;-0.01;99.55;100244.88;5115176;28;1898;-59
2022/02/16 04:19:48;;;;;;;;;;;;;;;0.15;99.75;100240.56;5097113;28;811;-57
2022/02/16 04:22:16;;;;;;;;;;;;;;;0.32;99.52;100244.34;5115272;28;803;-57
2022/02/16 04:24:43;;;;;;;;;;;;;;;0.51;100.00;100247.53;5115348;28;919;-57
2022/02/16 04:27:10;;;;;;;;;;;;;;;0.66;99.94;100250.84;5115069;28;945;-57
2022/02/16 04:29:36;;;;;;;;;;;;;;;0.75;100.00;100254.34;5115113;28;854;-59
2022/02/16 04:32:03;;;;;;;;;;;;;;;0.80;99.89;100254.97;5115055;28;869;-57
2022/02/16 04:34:29;;;;;;;;;;;;;;;0.82;99.10;100254.63;5114925;28;886;-59
2022/02/16 04:36:56;;;;;;;;;;;;;;;0.81;99.74;100253.03;5114919;28;1897;-59
2022/02/16 04:39:22;;;;;;;;;;;;;;;0.81;99.13;100261.19;5114783;28;882;-58
2022/02/16 04:41:49;;;;;;;;;;;;;;;0.78;99.95;100248.25;5114666;28;1283;-58
2022/02/16 04:44:15;;;;;;;;;;;;;;;0.73;99.56;100254.66;5114762;28;831;-56
2022/02/16 04:46:43;;;;;;;;;;;;;;;0.73;100.00;100251.16;5096482;28;854;-56
2022/02/16 04:49:34;;;;;;;;;;;;;;;0.79;99.54;100249.84;5114762;28;826;-56
2022/02/16 04:52:01;;;;;;;;;;;;;;;0.83;99.95;100256.22;5114041;28;834;-56
2022/02/16 04:54:28;;;;;;;;;;;;;;;0.88;100.00;100252.53;5096508;28;861;-55
2022/02/16 04:56:55;;;;;;;;;;;;;;;0.92;100.00;100253.50;5114489;28;1917;-56
2022/02/16 04:59:22;;;;;;;;;;;;;;;0.96;99.86;100255.22;5114419;28;917;-56
2022/02/16 05:01:50;;;;;;;;;;;;;;;1.00;100.00;100256.19;5114412;28;862;-56
2022/02/16 05:04:16;;;;;;;;;;;;;;;1.01;99.68;100257.75;5130205;27;1323;-56
2022/02/16 05:06:45;;;;;;;;;;;;;;;1.00;100.00;100263.53;5114242;28;886;-57
2022/02/16 05:09:12;;;;;;;;;;;;;;;1.01;100.00;100259.69;5114335;28;877;-58
2022/02/16 05:11:39;;;;;;;;;;;;;;;1.00;100.00;100269.78;5114318;28;842;-50
2022/02/16 05:14:06;;;;;;;;;;;;;;;1.01;100.00;100255.03;5096148;28;854;-49
2022/02/16 05:16:32;;;;;;;;;;;;;;;1.01;100.00;100252.31;5113891;28;1109;-49
2022/02/16 05:18:59;;;;;;;;;;;;;;;1.04;99.78;100252.78;5114028;28;899;-49
2022/02/16 05:21:26;;;;;;;;;;;;;;;1.06;100.00;100259.50;5114028;28;940;-50
2022/02/16 05:23:54;;;;;;;;;;;;;;;1.10;100.00;100273.25;5114027;28;838;-50
2022/02/16 05:26:20;;;;;;;;;;;;;;;1.12;100.00;100265.56;5113900;28;964;-50
2022/02/16 05:28:48;;;;;;;;;;;;;;;1.15;100.00;100268.44;5113903;28;835;-51
2022/02/16 05:31:14;;;;;;;;;;;;;;;1.21;100.00;100266.31;5095718;28;1406;-51
2022/02/16 05:33:41;;;;;;;;;;;;;;;1.24;100.00;100260.22;5113730;28;906;-52
2022/02/16 05:36:08;;;;;;;;;;;;;;;1.33;100.00;100266.41;5113762;28;928;-53
2022/02/16 05:38:35;;;;;;;;;;;;;;;1.43;100.00;100265.25;5113616;28;1886;-52
2022/02/16 05:41:01;;;;;;;;;;;;;;;1.46;100.00;100264.59;5095488;28;1249;-55
2022/02/16 05:43:29;;;;;;;;;;;;;;;1.48;99.85;100261.53;5113592;28;902;-55
2022/02/16 05:45:56;;;;;;;;;;;;;;;1.51;100.00;100260.88;5095400;28;874;-56
2022/02/16 05:48:22;;;;;;;;;;;;;;;1.56;100.00;100256.03;5113554;28;849;-52
2022/02/16 05:50:49;;;;;;;;;;;;;;;1.60;100.00;100264.31;5113459;28;909;-51
2022/02/16 05:53:16;;;;;;;;;;;;;;;1.69;100.00;100269.75;5113347;28;854;-50
2022/02/16 05:55:42;;;;;;;;;;;;;;;1.82;100.00;100265.97;5113391;28;918;-49
2022/02/16 05:58:09;;;;;;;;;;;;;;;2.02;100.00;100272.53;5113228;28;1917;-50
2022/02/16 06:00:36;;;;;;;;;;;;;;;2.09;100.00;100272.00;5113298;28;1040;-52
2022/02/16 06:03:02;;;;;;;;;;;;;;;2.13;100.00;100278.38;5113279;28;865;-51
2022/02/16 06:05:30;;;;;;;;;;;;;;;2.09;99.93;100274.72;5113261;28;850;-50
2022/02/16 06:07:57;;;;;;;;;;;;;;;2.03;99.79;100274.94;5113099;28;949;-51
2022/02/16 06:10:23;;;;;;;;;;;;;;;2.00;99.67;100274.78;5112988;28;893;-53
2022/02/16 06:12:49;;;;;;;;;;;;;;;2.09;100.00;100281.00;5113110;28;913;-53
2022/02/16 06:15:15;;;;;;;;;;;;;;;2.08;99.83;100276.66;5112874;28;1013;-55
2022/02/16 06:17:42;;;;;;;;;;;;;;;2.16;100.00;100275.00;5112840;28;1951;-55
2022/02/16 06:20:08;;;;;;;;;;;;;;;2.20;99.42;100267.75;5113091;28;957;-55
2022/02/16 06:22:34;;;;;;;;;;;;;;;2.29;99.56;100270.38;5112957;28;818;-55
2022/02/16 06:25:03;;;;;;;;;;;;;;;2.54;100.00;100265.78;5112797;28;1077;-55
2022/02/16 06:27:31;;;;;;;;;;;;;;;2.60;99.18;100275.38;5111964;28;944;-55
2022/02/16 06:29:57;;;;;;;;;;;;;;;2.71;100.00;100265.63;5112802;28;861;-56
2022/02/16 06:32:24;;;;;;;;;;;;;;;2.96;100.00;100268.38;5112640;28;886;-56
2022/02/16 06:34:50;;;;;;;;;;;;;;;3.02;99.24;100265.09;5112589;28;906;-55
2022/02/16 06:37:17;;;;;;;;;;;;;;;2.78;98.47;100260.41;5112521;28;1902;-55
2022/02/16 06:39:43;;;;;;;;;;;;;;;2.57;98.22;100254.22;5112693;28;805;-52
2022/02/16 06:42:11;;;;;;;;;;;;;;;2.44;98.70;100264.31;5092192;28;928;-58
2022/02/16 06:44:37;;;;;;;;;;;;;;;2.49;98.81;100261.34;5092036;28;846;-55
2022/02/16 06:47:04;;;;;;;;;;;;;;;2.40;99.23;100268.84;5092141;28;897;-55
2022/02/16 06:49:30;;;;;;;;;;;;;;;2.31;98.30;100273.59;5092077;28;830;-55
2022/02/16 06:52:00;;;;;;;;;;;;;;;2.34;99.28;100273.69;5091856;28;901;-54
2022/02/16 06:54:26;;;;;;;;;;;;;;;2.33;98.38;100272.09;5092031;28;807;-53
2022/02/16 06:56:53;;;;;;;;;;;;;;;2.37;99.10;100273.03;5091780;28;2272;-51
2022/02/16 06:59:19;;;;;;;;;;;;;;;2.43;98.71;100273.59;5091913;28;1068;-50
2022/02/16 07:01:45;;;;;;;;;;;;;;;2.55;99.03;100268.19;5090526;28;1640;-50
2022/02/16 07:04:12;;;;;;;;;;;;;;;2.69;98.36;100273.34;5091873;28;885;-50
2022/02/16 07:06:39;;;;;;;;;;;;;;;2.76;98.20;100268.13;5091791;28;830;-50
2022/02/16 07:09:05;;;;;;;;;;;;;;;2.85;97.52;100265.31;5091884;28;831;-52
2022/02/16 07:11:31;;;;;;;;;;;;;;;2.82;97.42;100271.44;5091706;28;862;-51
2022/02/16 07:13:58;;;;;;;;;;;;;;;2.85;97.16;100262.56;5091571;28;913;-51
2022/02/16 07:16:25;;;;;;;;;;;;;;;2.78;96.96;100262.34;5091722;28;1008;-51
2022/02/16 07:18:51;;;;;;;;;;;;;;;2.72;96.85;100261.75;5091480;28;1874;-51
2022/02/16 07:21:18;;;;;;;;;;;;;;;2.83;96.42;100256.66;5091591;28;914;-51
2022/02/16 07:23:48;;;;;;;;;;;;;;;3.05;97.10;100266.34;5091508;28;843;-50
2022/02/16 07:26:15;;;;;;;;;;;;;;;3.18;96.04;100272.59;5091423;28;1024;-51
2022/02/16 07:28:42;;;;;;;;;;;;;;;3.28;95.10;100275.69;5091481;28;854;-50
2022/02/16 07:31:09;;;;;;;;;;;;;;;3.23;95.32;100275.91;5091482;28;925;-51
2022/02/16 07:33:35;;;;;;;;;;;;;;;3.20;94.69;100268.41;5091401;28;889;-50
2022/02/16 07:36:02;;;;;;;;;;;;;;;3.53;96.52;100259.28;5091458;28;847;-51
2022/02/16 07:38:28;;;;;;;;;;;;;;;3.99;94.88;100254.41;5092415;28;1913;-51
2022/02/16 07:40:59;;;;;;;;;;;;;;;3.96;94.13;100263.28;5105230;28;1200;-53
2022/02/16 07:43:26;;;;;;;;;;;;;;;3.81;94.47;100262.06;5115911;28;878;-54
2022/02/16 07:45:51;;;;;;;;;;;;;;;3.80;95.17;100257.75;5115867;28;870;-54
2022/02/16 07:48:18;;;;;;;;;;;;;;;3.68;94.37;100265.97;5116191;28;897;-54
2022/02/16 07:50:44;;;;;;;;;;;;;;;3.48;94.46;100265.78;5115869;28;802;-54
2022/02/16 07:53:11;;;;;;;;;;;;;;;3.63;95.00;100256.09;5115979;28;831;-55
2022/02/16 07:55:38;;;;;;;;;;;;;;;3.61;94.32;100255.63;5115646;28;925;-55
2022/02/16 07:58:06;;;;;;;;;;;;;;;3.60;94.16;100255.97;5115676;28;1913;-55
2022/02/16 08:00:32;;;;;;;;;;;;;;;3.82;93.96;100255.47;5115884;28;941;-55
2022/02/16 08:02:59;;;;;;;;;;;;;;;4.08;93.74;100255.06;5115629;28;818;-56
2022/02/16 08:05:26;;;;;;;;;;;;;;;4.34;92.15;100251.06;5115629;28;889;-55
2022/02/16 08:07:54;;;;;;;;;;;;;;;4.72;91.54;100240.72;5115529;28;981;-55
2022/02/16 08:10:20;;;;;;;;;;;;;;;5.12;90.17;100240.53;5115458;28;937;-54
2022/02/16 08:12:48;;;;;;;;;;;;;;;5.46;89.36;100236.25;5115278;28;862;-53
2022/02/16 08:15:15;;;;;;;;;;;;;;;5.95;87.68;100237.69;5115423;28;898;-51
2022/02/16 08:17:42;;;;;;;;;;;;;;;6.70;87.19;100235.59;5115252;28;1952;-53
2022/02/16 08:20:09;;;;;;;;;;;;;;;6.73;83.66;100237.63;5115273;28;941;-52
2022/02/16 08:22:35;;;;;;;;;;;;;;;6.18;84.92;100229.53;5096924;28;1629;-52
2022/02/16 08:25:02;;;;;;;;;;;;;;;5.97;85.81;100235.41;5115233;28;838;-51
2022/02/16 08:27:28;;;;;;;;;;;;;;;5.93;85.40;100240.78;5115252;28;803;-51
2022/02/16 08:29:54;;;;;;;;;;;;;;;5.95;85.49;100240.44;5115296;28;845;-53
2022/02/16 08:32:21;;;;;;;;;;;;;;;6.21;84.65;100245.31;5115169;28;861;-52
2022/02/16 08:34:47;;;;;;;;;;;;;;;6.63;84.17;100232.72;5115023;28;1312;-52
2022/02/16 08:37:14;;;;;;;;;;;;;;;7.01;81.96;100237.31;5114889;28;1881;-52
2022/02/16 08:39:41;;;;;;;;;;;;;;;6.77;80.73;100223.97;5115039;28;873;-51
2022/02/16 08:42:07;;;;;;;;;;;;;;;6.67;81.35;100228.88;5096393;28;1431;-52
2022/02/16 08:44:34;;;;;;;;;;;;;;;6.32;81.49;100226.28;5114694;28;932;-51
2022/02/16 08:47:00;;;;;;;;;;;;;;;6.27;82.15;100224.66;5115080;28;877;-52
2022/02/16 08:49:26;;;;;;;;;;;;;;;6.39;82.15;100229.16;5114456;28;875;-54
2022/02/16 08:51:53;;;;;;;;;;;;;;;6.23;81.95;100231.19;5114253;28;826;-52
2022/02/16 08:54:19;;;;;;;;;;;;;;;6.30;83.02;100223.91;5114811;28;921;-51
2022/02/16 08:56:46;;;;;;;;;;;;;;;6.25;82.13;100226.97;5114872;28;1910;-54
2022/02/16 08:59:13;;;;;;;;;;;;;;;5.97;82.47;100226.38;5114669;28;909;-54
2022/02/16 09:01:39;;;;;;;;;;;;;;;5.71;83.34;100220.31;5115348;28;731;-52
2022/02/16 09:04:06;;;;;;;;;;;;;;;5.62;84.29;100225.22;5114848;28;885;-52
2022/02/16 09:06:34;;;;;;;;;;;;;;;5.51;84.50;100225.00;5114610;28;1168;-49
2022/02/16 09:09:00;;;;;;;;;;;;;;;5.52;85.10;100226.56;5114661;28;885;-53
2022/02/16 09:11:27;;;;;;;;;;;;;;;5.67;85.07;100227.69;5114466;28;806;-54
2022/02/16 09:13:54;;;;;;;;;;;;;;;5.50;84.61;100223.44;5114545;28;989;-54
2022/02/16 09:16:20;;;;;;;;;;;;;;;5.57;84.92;100231.00;5114434;28;1282;-53
2022/02/16 09:18:47;;;;;;;;;;;;;;;5.59;84.63;100225.16;5114121;28;1885;-52
2022/02/16 09:21:13;;;;;;;;;;;;;;;5.58;85.18;100229.06;5114141;28;878;-54
2022/02/16 09:23:41;;;;;;;;;;;;;;;5.39;84.83;100233.34;5114036;28;869;-54
2022/02/16 09:26:08;;;;;;;;;;;;;;;5.41;85.54;100231.03;5113939;28;842;-52
2022/02/16 09:28:35;;;;;;;;;;;;;;;5.46;85.28;100225.28;5114007;28;822;-51
2022/02/16 09:31:02;;;;;;;;;;;;;;;5.78;85.85;100214.19;5113831;28;947;-51
2022/02/16 09:33:29;;;;;;;;;;;;;;;6.01;84.45;100213.53;5113947;28;806;-53
2022/02/16 09:35:56;;;;;;;;;;;;;;;6.21;84.35;100209.63;5114112;28;1202;-53
2022/02/16 09:38:23;;;;;;;;;;;;;;;6.27;84.30;100199.94;5095568;28;1952;-52
2022/02/16 09:40:50;;;;;;;;;;;;;;;6.39;83.61;100195.44;5113377;28;1257;-51
2022/02/16 09:43:21;;;;;;;;;;;;;;;6.77;83.18;100186.28;5113717;28;798;-52
2022/02/16 09:45:47;;;;;;;;;;;;;;;7.11;81.76;100183.69;5113857;28;985;-51
2022/02/16 09:48:14;;;;;;;;;;;;;;;7.25;79.56;100181.13;5113700;28;925;-53
2022/02/16 09:50:40;;;;;;;;;;;;;;;7.13;80.66;100170.38;5113797;28;858;-52
2022/02/16 09:53:07;;;;;;;;;;;;;;;7.29;79.68;100161.94;5113832;28;889;-51
2022/02/16 09:55:34;;;;;;;;;;;;;;;7.03;79.38;100163.53;5113974;28;877;-53
2022/02/16 09:58:01;;;;;;;;;;;;;;;6.79;80.47;100162.00;5113576;28;1914;-52
2022/02/16 10:00:27;;;;;;;;;;;;;;;7.00;79.92;100156.03;5113769;28;883;-51
2022/02/16 10:05:58;;;;;;;;;;;;;;;7.44;78.31;100144.47;5113312;28;660;-54
2022/02/16 10:08:40;;;;;;;;;;;;;;;7.62;79.59;100138.41;5113134;28;886;-54
2022/02/16 10:11:07;;;;;;;;;;;;;;;7.88;77.62;100134.78;5112921;28;917;-52
2022/02/16 10:13:34;;;;;;;;;;;;;;;8.08;77.95;100129.88;5094938;28;941;-52
2022/02/16 10:16:01;;;;;;;;;;;;;;;8.24;76.75;100115.91;5113269;28;1029;-55
2022/02/16 10:18:28;;;;;;;;;;;;;;;8.82;74.73;100112.47;5112755;28;1955;-53
2022/02/16 10:21:08;;;;;;;;;;;;;;;9.10;74.85;100119.34;5112861;28;846;-52
2022/02/16 10:23:45;;;;;;;;;;;;;;;9.00;72.14;100112.56;5113181;28;827;-54
2022/02/16 10:26:12;;;;;;;;;;;;;;;8.57;73.76;100110.28;5113018;28;876;-55
2022/02/16 10:28:41;;;;;;;;;;;;;;;8.36;74.33;100116.41;5112696;28;938;-54
2022/02/16 10:31:08;;;;;;;;;;;;;;;8.55;74.29;100101.63;5112723;28;854;-56
2022/02/16 10:33:36;;;;;;;;;;;;;;;8.79;74.30;100103.00;5094460;28;889;-56
2022/02/16 10:36:09;;;;;;;;;;;;;;;8.52;73.67;100105.16;5112644;28;961;-57
2022/02/16 10:38:56;;;;;;;;;;;;;;;8.05;74.64;100086.59;5094731;28;1890;-57
2022/02/16 10:41:24;;;;;;;;;;;;;;;7.77;76.83;100085.13;5112304;28;1343;-58
2022/02/16 10:43:52;;;;;;;;;;;;;;;7.81;77.70;100080.47;5094726;28;949;-58
2022/02/16 10:46:21;;;;;;;;;;;;;;;7.97;76.92;100078.25;5094575;28;1407;-58
2022/02/16 10:48:49;;;;;;;;;;;;;;;8.07;76.67;100079.56;5112389;28;925;-58
2022/02/16 10:51:20;;;;;;;;;;;;;;;8.28;77.82;100078.16;5112524;28;818;-59
2022/02/16 10:54:06;;;;;;;;;;;;;;;8.38;75.51;100069.19;5112290;28;941;-59
2022/02/16 10:56:33;;;;;;;;;;;;;;;8.23;75.38;100070.25;5112398;28;842;-59
2022/02/16 10:59:00;;;;;;;;;;;;;;;8.05;77.17;100070.09;5094147;28;1971;-59
2022/02/16 11:01:27;;;;;;;;;;;;;;;8.14;76.66;100065.06;5112265;28;1000;-59
2022/02/16 11:03:54;;;;;;;;;;;;;;;7.87;77.03;100064.38;5112172;28;924;-59
2022/02/16 11:06:22;;;;;;;;;;;;;;;8.13;77.59;100049.72;5112105;28;905;-59
2022/02/16 11:08:50;;;;;;;;;;;;;;;8.20;76.38;100058.03;5112267;28;881;-59
2022/02/16 11:11:16;;;;;;;;;;;;;;;8.48;76.41;100052.00;5112030;28;830;-59
2022/02/16 11:13:44;;;;;;;;;;;;;;;8.90;75.51;100044.41;5111847;28;865;-59
2022/02/16 11:16:11;;;;;;;;;;;;;;;9.01;73.74;100039.72;5112320;28;948;-59
2022/02/16 11:18:45;;;;;;;;;;;;;;;8.82;74.45;100038.06;5127801;27;2198;-59
2022/02/16 11:21:24;;;;;;;;;;;;;;;9.06;74.27;100028.31;5093805;28;905;-59
2022/02/16 11:23:53;;;;;;;;;;;;;;;9.09;73.26;100016.53;5112020;28;889;-59
2022/02/16 11:26:48;;;;;;;;;;;;;;;8.83;73.74;100019.53;5111941;28;1138;-59
2022/02/16 11:29:28;;;;;;;;;;;;;;;8.95;74.48;100016.47;5111896;28;977;-59
2022/02/16 11:32:15;;;;;;;;;;;;;;;9.06;74.17;100013.75;5111969;28;787;-59
2022/02/16 11:34:43;;;;;;;;;;;;;;;9.18;73.47;100013.41;5093488;28;1488;-59
2022/02/16 11:37:10;;;;;;;;;;;;;;;9.15;73.55;100015.00;5093711;28;1869;-59
2022/02/16 11:40:00;;;;;;;;;;;;;;;9.23;73.68;100006.72;5111682;28;964;-59
2022/02/16 11:42:51;;;;;;;;;;;;;;;9.80;72.77;99998.59;5111829;28;854;-59
2022/02/16 11:45:20;;;;;;;;;;;;;;;9.69;71.33;99992.28;5111831;28;819;-60
2022/02/16 11:47:47;;;;;;;;;;;;;;;9.58;71.51;99982.03;5093447;28;1175;-59
2022/02/16 11:50:17;;;;;;;;;;;;;;;9.53;72.10;99978.84;5111637;28;858;-59
2022/02/16 11:52:53;;;;;;;;;;;;;;;9.63;72.25;99978.06;5111642;28;913;-59
2022/02/16 11:55:25;;;;;;;;;;;;;;;10.11;71.26;99977.69;5111767;28;878;-59
2022/02/16 11:57:51;;;;;;;;;;;;;;;10.47;69.19;99965.88;5093669;28;1902;-59
2022/02/16 12:00:18;;;;;;;;;;;;;;;10.40;69.23;99969.44;5111555;28;909;-59
2022/02/16 12:03:05;;;;;;;;;;;;;;;10.32;70.18;99967.88;5111623;28;913;-59
2022/02/16 12:05:52;;;;;;;;;;;;;;;10.47;69.35;99961.13;5111835;28;841;-59
2022/02/16 12:08:22;;;;;;;;;;;;;;;10.75;69.21;99957.53;5127291;28;2160;-59
2022/02/16 12:10:49;;;;;;;;;;;;;;;10.83;68.67;99956.28;5111394;28;999;-59
2022/02/16 12:13:24;;;;;;;;;;;;;;;10.91;68.52;99950.75;5111484;28;874;-59
2022/02/16 12:15:54;;;;;;;;;;;;;;;11.00;67.62;99943.56;5111744;28;1055;-59
2022/02/16 12:18:25;;;;;;;;;;;;;;;11.10;68.09;99941.19;5111429;28;1956;-59
2022/02/16 12:20:52;;;;;;;;;;;;;;;11.48;67.30;99944.13;5111409;28;939;-59
2022/02/16 12:23:20;;;;;;;;;;;;;;;11.81;65.65;99951.00;5093191;28;1346;-59
2022/02/16 12:26:01;;;;;;;;;;;;;;;11.79;65.61;99943.09;5112719;28;912;-59
2022/02/16 12:28:28;;;;;;;;;;;;;;;11.85;65.08;99938.72;5115172;28;802;-59
2022/02/16 12:30:55;;;;;;;;;;;;;;;11.81;64.56;99932.41;5115110;28;936;-59
2022/02/16 12:33:23;;;;;;;;;;;;;;;11.62;64.87;99925.44;5096865;28;844;-59
2022/02/16 12:35:51;;;;;;;;;;;;;;;11.59;66.16;99926.25;5115009;28;858;-59
2022/02/16 12:38:24;;;;;;;;;;;;;;;11.75;65.75;99928.50;5096810;28;1950;-59
2022/02/16 12:40:51;;;;;;;;;;;;;;;11.95;64.79;99926.00;5114657;28;1253;-59
2022/02/16 12:43:21;;;;;;;;;;;;;;;11.89;64.43;99915.78;5114860;28;866;-59
2022/02/16 12:45:48;;;;;;;;;;;;;;;11.96;64.73;99916.50;5096594;28;1186;-59
2022/02/16 12:48:16;;;;;;;;;;;;;;;12.14;64.59;99910.00;5096450;28;1325;-59
2022/02/16 12:50:44;;;;;;;;;;;;;;;12.05;64.61;99914.06;5114958;28;906;-58
2022/02/16 12:53:12;;;;;;;;;;;;;;;12.49;64.27;99906.09;5079675;28;1361;-59
2022/02/16 12:55:41;;;;;;;;;;;;;;;12.75;62.64;99901.81;5096271;28;1280;-59
2022/02/16 12:58:09;;;;;;;;;;;;;;;12.82;62.28;99890.66;5096319;28;1987;-59
2022/02/16 13:00:48;;;;;;;;;;;;;;;12.95;62.13;99887.28;5114437;28;913;-59
2022/02/16 13:03:21;;;;;;;;;;;;;;;13.10;61.87;99880.38;5114746;28;924;-60
2022/02/16 13:05:48;;;;;;;;;;;;;;;13.16;60.94;99878.69;5114306;28;893;-60
2022/02/16 13:08:15;;;;;;;;;;;;;;;13.04;61.92;99874.50;5114559;28;794;-59
2022/02/16 13:10:42;;;;;;;;;;;;;;;12.90;62.40;99880.22;5114287;28;913;-59
2022/02/16 13:13:27;;;;;;;;;;;;;;;12.97;61.42;99862.69;5096055;28;1324;-59